createdAt,value
2019-05-03T11:33:15.759Z,8.90
2019-05-03T11:38:19.012Z,8.60
2019-05-03T11:43:22.071Z,8.20
2019-05-03T11:48:25.274Z,8.10
2019-05-03T11:53:26.363Z,7.87
2019-05-03T11:58:27.450Z,10.13
2019-05-03T12:03:39.460Z,8.83
2019-05-03T12:08:40.618Z,7.90
2019-05-03T12:13:45.456Z,7.50
2019-05-03T12:18:53.366Z,6.60
2019-05-03T12:23:50.092Z,6.27
2019-05-03T12:28:51.530Z,5.87
2019-05-03T12:33:54.900Z,6.43
2019-05-03T12:38:55.410Z,7.23
2019-05-03T12:43:56.357Z,7.80
2019-05-03T12:48:57.344Z,8.10
2019-05-03T12:53:58.328Z,9.63
2019-05-03T12:59:10.125Z,10.70
2019-05-03T13:04:15.165Z,9.70
2019-05-03T13:09:16.083Z,9.77
2019-05-03T13:14:17.096Z,7.47
2019-05-03T13:19:17.952Z,8.00
2019-05-03T13:24:23.101Z,6.50
2019-05-03T13:29:21.732Z,3.80
2019-05-03T13:34:24.712Z,3.50
2019-05-03T13:39:26.506Z,2.70
2019-05-03T13:44:27.661Z,2.00
2019-05-03T13:49:28.552Z,2.80
2019-05-03T13:54:29.433Z,2.37
2019-05-03T13:59:30.288Z,2.10
2019-05-03T14:04:31.164Z,2.20
2019-05-03T14:09:34.587Z,1.90
2019-05-03T14:14:55.970Z,2.60
2019-05-03T14:20:09.897Z,2.20
2019-05-03T14:25:10.972Z,2.90
2019-05-03T14:30:14.526Z,2.87
2019-05-03T14:35:16.308Z,4.03
2019-05-03T14:40:17.603Z,3.37
2019-05-03T14:45:19.020Z,3.70
2019-05-03T14:50:21.252Z,3.00
2019-05-03T14:55:25.204Z,3.20
2019-05-03T15:00:38.177Z,3.20
2019-05-03T15:05:39.276Z,3.13
2019-05-03T15:10:40.161Z,3.00
2019-05-03T15:15:41.141Z,3.77
2019-05-03T15:20:42.839Z,4.13
2019-05-03T15:25:45.211Z,3.90
2019-05-03T15:30:46.351Z,4.67
2019-05-03T15:35:47.251Z,6.60
2019-05-03T15:40:48.210Z,6.03
2019-05-03T15:45:51.014Z,6.37
2019-05-03T15:50:51.873Z,6.80
2019-05-03T15:55:54.528Z,6.70
2019-05-03T16:00:56.128Z,5.40
2019-05-03T16:05:57.066Z,5.20
2019-05-03T16:10:57.959Z,4.60
2019-05-03T16:15:58.830Z,4.73
2019-05-03T16:20:59.721Z,4.43
2019-05-03T16:26:00.707Z,4.67
2019-05-03T16:31:09.432Z,4.63
2019-05-03T16:36:10.320Z,4.23
2019-05-03T16:41:11.184Z,4.47
2019-05-03T16:46:14.408Z,4.67
2019-05-03T16:51:17.304Z,4.87
2019-05-03T16:56:17.974Z,3.83
2019-05-03T17:01:18.950Z,4.00
2019-05-03T17:06:26.394Z,4.10
2019-05-03T17:11:27.619Z,3.87
2019-05-03T17:16:28.496Z,4.13
2019-05-03T17:21:29.380Z,4.37
2019-05-03T17:26:30.276Z,3.67
2019-05-03T17:31:31.156Z,4.43
2019-05-03T17:36:32.051Z,4.93
2019-05-03T17:41:47.118Z,4.70
2019-05-03T17:46:50.680Z,4.47
2019-05-03T17:51:57.681Z,5.10
2019-05-03T17:57:17.718Z,5.10
2019-05-03T18:02:27.372Z,5.60
2019-05-03T18:07:34.915Z,5.13
2019-05-03T18:12:36.567Z,5.67
2019-05-03T18:17:38.952Z,5.97
2019-05-03T18:22:40.386Z,5.10
2019-05-03T18:27:42.321Z,6.30
2019-05-03T18:32:45.166Z,5.30
2019-05-03T18:37:48.064Z,5.13
2019-05-03T18:43:05.255Z,5.53
2019-05-03T18:48:06.143Z,5.07
2019-05-03T18:53:07.472Z,5.30
2019-05-03T18:58:08.357Z,4.83
2019-05-03T19:03:11.003Z,5.13
2019-05-03T19:08:30.440Z,4.83
2019-05-03T19:13:33.340Z,4.50
2019-05-03T19:18:36.220Z,3.63
2019-05-03T19:23:37.208Z,4.13
2019-05-03T19:28:38.093Z,4.80
2019-05-03T19:33:38.959Z,5.07
2019-05-03T19:38:39.840Z,4.50
2019-05-03T19:43:40.712Z,4.97
2019-05-03T19:48:41.619Z,4.63
2019-05-03T19:53:47.427Z,5.37
2019-05-03T19:58:48.832Z,4.67
2019-05-03T20:03:54.607Z,4.33
2019-05-03T20:09:03.163Z,5.37
2019-05-03T20:14:04.749Z,5.53
2019-05-03T20:19:17.850Z,5.53
2019-05-03T20:24:08.672Z,6.03
2019-05-03T20:29:09.567Z,6.13
2019-05-03T20:34:10.443Z,5.27
2019-05-03T20:39:11.319Z,5.93
2019-05-03T20:44:24.734Z,5.90
2019-05-03T20:49:25.576Z,6.33
2019-05-03T20:54:26.448Z,6.47
2019-05-03T20:59:27.428Z,5.40
2019-05-03T21:04:28.324Z,5.83
2019-05-03T21:09:29.184Z,6.43
2019-05-03T21:14:30.060Z,6.27
2019-05-03T21:19:36.317Z,6.87
2019-05-03T21:24:47.884Z,6.30
2019-05-03T21:29:50.675Z,7.53
2019-05-03T21:34:51.564Z,7.40
2019-05-03T21:39:52.435Z,6.67
2019-05-03T21:44:55.359Z,6.53
2019-05-03T21:49:58.018Z,6.87
2019-05-03T21:54:59.332Z,6.20
2019-05-03T22:00:00.913Z,6.87
2019-05-03T22:05:03.104Z,6.40
2019-05-03T22:10:05.521Z,6.53
2019-05-03T22:15:20.761Z,6.10
2019-05-03T22:20:41.849Z,7.00
2019-05-03T22:25:43.831Z,7.20
2019-05-03T22:30:45.334Z,5.50
2019-05-03T22:35:46.436Z,6.00
2019-05-03T22:40:47.313Z,6.63
2019-05-03T22:45:48.283Z,5.87
2019-05-03T22:50:49.179Z,5.60
2019-05-03T22:55:50.276Z,5.17
2019-05-03T23:00:51.168Z,5.63
2019-05-03T23:05:52.421Z,5.43
2019-05-03T23:10:54.734Z,7.00
2019-05-03T23:15:55.816Z,5.60
2019-05-03T23:20:58.611Z,6.07
2019-05-03T23:25:59.487Z,5.50
